Time;durP1;ratioP1;P1;durP2;ratioP2;P2;SDS_P1;SDS_P2;PMS_P1;PMS_P2;Temp;Humidity;BMP_temperature;BMP_pressure;BME280_temperature;BME280_humidity;BME280_pressure;Samples;Min_cycle;Max_cycle;Signal;HPM_P1;HPM_P2
2022/09/12 00:01:49;;;;;;;23.58;16.13;;;;;;;16.71;63.63;101758.44;5197807;28;21267;-44
2022/09/12 00:04:21;;;;;;;17.88;13.93;;;;;;;16.66;63.55;101750.09;5203859;28;20114;-43
2022/09/12 00:06:54;;;;;;;20.20;14.45;;;;;;;16.63;63.65;101737.09;5195958;28;20491;-47
2022/09/12 00:09:27;;;;;;;20.30;15.32;;;;;;;16.71;63.70;101747.78;5184557;28;20417;-42
2022/09/12 00:11:59;;;;;;;18.98;13.98;;;;;;;16.69;63.63;101752.44;5182567;28;20067;-40
2022/09/12 00:14:32;;;;;;;23.40;16.48;;;;;;;16.66;63.71;101744.75;5183819;28;20041;-42
2022/09/12 00:17:06;;;;;;;19.48;14.82;;;;;;;16.64;63.86;101747.63;5183400;28;20374;-45
2022/09/12 00:19:38;;;;;;;24.23;14.90;;;;;;;16.66;63.91;101748.28;5186264;28;20489;-44
2022/09/12 00:22:11;;;;;;;22.90;15.75;;;;;;;16.56;63.93;101735.09;5186352;28;20063;-45
2022/09/12 00:24:44;;;;;;;19.05;15.57;;;;;;;16.56;63.92;101739.59;5187801;28;20138;-44
2022/09/12 00:27:16;;;;;;;18.80;14.20;;;;;;;16.63;63.89;101745.09;5192353;28;20365;-46
2022/09/12 00:29:48;;;;;;;20.77;15.48;;;;;;;16.60;64.04;101739.13;5186799;28;20098;-41
2022/09/12 00:32:22;;;;;;;29.70;18.40;;;;;;;16.51;64.01;101731.28;5183906;28;20072;-43
2022/09/12 00:34:55;;;;;;;26.00;18.27;;;;;;;16.56;64.08;101735.09;5185793;28;20037;-41
2022/09/12 00:37:27;;;;;;;24.33;17.33;;;;;;;16.53;64.05;101724.78;5185873;28;20136;-44
2022/09/12 00:40:00;;;;;;;25.70;17.70;;;;;;;16.54;63.98;101726.47;5185570;28;20131;-45
2022/09/12 00:42:32;;;;;;;27.85;19.52;;;;;;;16.53;64.02;101723.94;5182730;28;20060;-44
2022/09/12 00:45:11;;;;;;;27.95;19.10;;;;;;;16.60;64.02;101725.78;5188804;28;20064;-41
2022/09/12 00:47:45;;;;;;;27.85;20.90;;;;;;;16.56;63.89;101723.59;5185365;28;20056;-42
2022/09/12 00:50:18;;;;;;;32.17;22.83;;;;;;;16.52;64.03;101712.44;5183691;28;20056;-44
2022/09/12 00:52:57;;;;;;;33.67;23.42;;;;;;;16.65;63.87;101729.78;5184680;28;20132;-43
2022/09/12 00:55:35;;;;;;;33.00;21.90;;;;;;;16.58;64.01;101709.13;5185224;28;20447;-40
2022/09/12 00:58:12;;;;;;;26.55;20.52;;;;;;;16.56;63.95;101713.78;5183370;28;20128;-41
2022/09/12 01:00:46;;;;;;;29.45;20.77;;;;;;;16.63;64.03;101721.09;5185287;28;20076;-43
2022/09/12 01:03:23;;;;;;;29.52;19.33;;;;;;;16.56;64.02;101707.59;5186779;28;20187;-39
2022/09/12 01:06:10;;;;;;;31.05;22.60;;;;;;;16.60;64.18;101706.28;5182628;28;20386;-40
2022/09/12 01:08:44;;;;;;;34.72;22.25;;;;;;;16.66;64.10;101712.75;5183884;28;20052;-40
2022/09/12 01:11:18;;;;;;;35.97;21.75;;;;;;;16.60;64.01;101699.13;5184112;28;20365;-43
2022/09/12 01:13:51;;;;;;;30.63;21.20;;;;;;;16.68;63.98;101710.78;5171483;28;20056;-42
2022/09/12 01:16:24;;;;;;;25.30;19.42;;;;;;;16.67;63.94;101707.28;5183771;28;20698;-44
2022/09/12 01:19:17;;;;;;;26.20;20.02;;;;;;;16.53;64.04;101682.09;5184226;28;20501;-40
2022/09/12 01:22:04;;;;;;;29.40;19.48;;;;;;;16.65;64.07;101705.78;5181789;28;20631;-43
2022/09/12 01:25:11;;;;;;;24.90;17.92;;;;;;;16.65;64.06;101705.78;5181200;28;20060;-44
2022/09/12 01:28:04;;;;;;;26.48;19.08;;;;;;;16.65;63.98;101703.09;5174498;28;20045;-39
2022/09/12 01:30:51;;;;;;;28.50;18.03;;;;;;;16.64;63.90;101688.94;5182163;28;20110;-42
2022/09/12 01:33:51;;;;;;;27.98;20.05;;;;;;;16.66;64.01;101691.44;5179479;28;20620;-43
2022/09/12 01:36:39;;;;;;;28.25;20.02;;;;;;;16.59;63.86;101680.59;5183109;28;20044;-38
2022/09/12 01:39:27;;;;;;;26.15;19.00;;;;;;;16.72;63.85;101696.09;5185114;28;20124;-44
2022/09/12 01:42:14;;;;;;;25.95;18.13;;;;;;;16.74;63.75;101684.25;5174733;28;20110;-42
2022/09/12 01:44:55;;;;;;;26.40;18.13;;;;;;;16.76;63.74;101692.97;5182919;28;20044;-40
2022/09/12 01:47:38;;;;;;;34.40;20.40;;;;;;;16.77;63.82;101680.44;5183615;28;20132;-44
2022/09/12 01:50:15;;;;;;;24.48;18.02;;;;;;;16.85;63.68;101690.25;5183910;28;20408;-41
2022/09/12 01:52:53;;;;;;;24.52;18.92;;;;;;;16.79;63.45;101670.44;5186947;28;20475;-42
2022/09/12 01:55:50;;;;;;;23.45;17.65;;;;;;;16.90;63.54;101678.06;5184783;28;20041;-40
2022/09/12 01:58:27;;;;;;;24.25;16.65;;;;;;;16.91;63.52;101677.09;5175824;28;20044;-41
2022/09/12 02:01:06;;;;;;;26.52;17.33;;;;;;;16.91;63.34;101669.09;5182347;28;20114;-42
2022/09/12 02:03:46;;;;;;;27.83;18.85;;;;;;;16.88;63.41;101677.44;5181832;28;20041;-42
2022/09/12 02:06:22;;;;;;;30.88;18.50;;;;;;;16.88;63.40;101674.75;5182932;28;20136;-41
2022/09/12 02:08:58;;;;;;;27.00;18.08;;;;;;;16.90;63.36;101672.72;5194649;28;20056;-44
2022/09/12 02:11:34;;;;;;;25.35;18.48;;;;;;;16.82;63.38;101654.09;5192857;28;20064;-47
2022/09/12 02:14:11;;;;;;;25.85;18.02;;;;;;;16.82;63.31;101659.44;5197633;28;20545;-42
2022/09/12 02:16:47;;;;;;;27.95;17.92;;;;;;;16.81;63.44;101652.41;5197668;28;20256;-43
2022/09/12 02:19:23;;;;;;;25.45;17.70;;;;;;;16.77;63.44;101651.09;5199923;28;20488;-45
2022/09/12 02:21:58;;;;;;;28.85;19.17;;;;;;;16.84;63.50;101668.09;5200838;28;20098;-43
2022/09/12 02:24:36;;;;;;;23.38;18.20;;;;;;;16.85;63.40;101669.78;5198809;28;20076;-42
2022/09/12 02:27:14;;;;;;;31.05;18.50;;;;;;;16.87;63.42;101667.75;5190723;28;20478;-43
2022/09/12 02:29:47;;;;;;;30.63;18.30;;;;;;;16.84;63.26;101652.06;5191486;28;20135;-42
2022/09/12 02:32:29;;;;;;;36.42;18.98;;;;;;;16.91;63.29;101658.41;5193358;28;20557;-41
2022/09/12 02:35:08;;;;;;;25.87;18.53;;;;;;;16.91;63.37;101661.09;5194787;28;20079;-46
2022/09/12 02:37:57;;;;;;;30.85;18.80;;;;;;;16.87;63.25;101649.06;5199973;28;20390;-42
2022/09/12 02:40:30;;;;;;;28.83;18.23;;;;;;;16.78;63.09;101639.41;5199997;28;20484;-44
2022/09/12 02:43:05;;;;;;;32.92;19.15;;;;;;;16.82;63.29;101640.75;5194965;28;20072;-48
2022/09/12 02:45:38;;;;;;;25.60;18.63;;;;;;;16.79;63.20;101635.78;5201593;28;20364;-42
2022/09/12 02:48:14;;;;;;;32.25;20.48;;;;;;;16.85;63.13;101647.56;5199567;28;20052;-40
2022/09/12 02:50:49;;;;;;;36.88;20.70;;;;;;;16.82;63.35;101635.44;5202855;28;20110;-41
2022/09/12 02:53:22;;;;;;;32.90;20.30;;;;;;;16.77;63.14;101635.09;5199569;28;22769;-40
2022/09/12 02:55:54;;;;;;;26.55;20.13;;;;;;;16.85;63.26;101636.91;5198261;28;20566;-45
2022/09/12 02:58:31;;;;;;;32.00;19.17;;;;;;;16.84;63.11;101630.72;5197616;28;20117;-47
2022/09/12 03:01:13;;;;;;;29.02;20.13;;;;;;;16.74;63.16;101622.06;5198281;28;20044;-44
2022/09/12 03:04:14;;;;;;;32.13;20.00;;;;;;;16.80;63.20;101629.41;5192519;28;20123;-42
2022/09/12 03:07:01;;;;;;;29.65;19.48;;;;;;;16.82;63.11;101628.25;5187387;28;20136;-40
2022/09/12 03:09:42;;;;;;;31.38;21.35;;;;;;;16.86;62.86;101626.06;5196970;28;20489;-40
2022/09/12 03:12:27;;;;;;;33.00;21.67;;;;;;;16.80;63.09;101621.41;5201671;28;20237;-42
2022/09/12 03:15:18;;;;;;;31.30;21.20;;;;;;;16.87;63.12;101624.22;5200842;28;20120;-44
2022/09/12 03:18:08;;;;;;;31.50;21.70;;;;;;;16.80;63.17;101613.41;5199733;28;20124;-42
2022/09/12 03:20:50;;;;;;;35.25;24.90;;;;;;;16.88;63.11;101615.22;5197743;28;20427;-39
2022/09/12 03:23:33;;;;;;;31.77;21.40;;;;;;;16.81;63.12;101604.41;5200028;28;20116;-39
2022/09/12 03:26:12;;;;;;;28.02;20.35;;;;;;;16.80;63.00;101602.75;5197463;28;20424;-39
2022/09/12 03:28:47;;;;;;;30.90;19.42;;;;;;;16.89;63.17;101628.41;5201554;28;20076;-41
2022/09/12 03:31:20;;;;;;;30.20;22.15;;;;;;;16.88;62.80;101610.72;5203575;28;20087;-45
2022/09/12 03:33:53;;;;;;;34.17;22.92;;;;;;;16.82;62.78;101595.41;5203834;28;20131;-40
2022/09/12 03:36:28;;;;;;;30.30;20.95;;;;;;;16.88;62.84;101602.72;5204687;28;20534;-46
2022/09/12 03:39:01;;;;;;;29.05;20.73;;;;;;;16.83;62.83;101602.41;5205013;28;20427;-45
2022/09/12 03:41:34;;;;;;;36.13;21.90;;;;;;;16.89;62.82;101612.38;5199455;28;20128;-42
2022/09/12 03:44:06;;;;;;;32.58;21.02;;;;;;;16.86;62.57;101607.41;5207860;28;20113;-44
2022/09/12 03:46:39;;;;;;;33.50;22.63;;;;;;;16.89;62.79;101607.03;5200898;28;20469;-39
2022/09/12 03:49:12;;;;;;;33.45;21.90;;;;;;;16.89;62.68;101596.38;5202801;28;20045;-43
2022/09/12 03:51:44;;;;;;;38.38;23.95;;;;;;;16.82;62.79;101590.06;5207584;28;20130;-43
2022/09/12 03:54:18;;;;;;;36.00;24.70;;;;;;;16.85;62.66;101595.06;5207064;28;20082;-41
2022/09/12 03:56:50;;;;;;;40.15;25.10;;;;;;;16.85;62.59;101600.41;5207469;28;22552;-43
2022/09/12 03:59:23;;;;;;;35.00;24.60;;;;;;;16.83;62.51;101594.41;5210455;28;20095;-44
2022/09/12 04:01:55;;;;;;;40.47;24.83;;;;;;;16.84;62.74;101601.38;5206971;28;20386;-35
2022/09/12 04:04:28;;;;;;;41.40;26.27;;;;;;;16.78;62.69;101596.75;5202530;28;20087;-43
2022/09/12 04:07:00;;;;;;;35.60;25.15;;;;;;;16.83;62.71;101602.41;5207263;28;20430;-39
2022/09/12 04:09:34;;;;;;;34.33;22.60;;;;;;;16.87;62.65;101609.03;5189304;28;20512;-45
2022/09/12 04:12:07;;;;;;;35.33;23.83;;;;;;;16.90;62.43;101603.38;5190821;28;20410;-42
2022/09/12 04:14:40;;;;;;;;;;;;;;;16.94;62.65;101610.03;5191967;28;20523;-41
2022/09/12 04:17:13;;;;;;;34.92;23.42;;;;;;;16.96;62.60;101608.00;5185092;28;19954;-43
2022/09/12 04:19:45;;;;;;;36.22;24.40;;;;;;;17.00;62.41;101611.16;5186178;28;20076;-41
2022/09/12 04:22:17;;;;;;;40.42;23.67;;;;;;;17.01;62.49;101621.69;5190476;28;20458;-40
2022/09/12 04:24:51;;;;;;;35.05;24.60;;;;;;;16.99;62.36;101607.66;5185439;28;20440;-44
2022/09/12 04:27:24;;;;;;;37.75;22.45;;;;;;;17.01;62.38;101610.19;5191136;28;20397;-48
2022/09/12 04:29:56;;;;;;;34.78;23.48;;;;;;;17.04;62.43;101601.81;5191099;28;20126;-44
2022/09/12 04:32:30;;;;;;;38.38;20.90;;;;;;;17.07;62.33;101598.81;5186558;28;20118;-49
2022/09/12 04:35:04;;;;;;;32.28;21.33;;;;;;;17.09;62.32;101590.63;5183798;28;20172;-40
2022/09/12 04:37:36;;;;;;;;;;;;;;;17.11;62.24;101602.78;5186764;28;20120;-45
2022/09/12 04:40:11;;;;;;;32.08;19.52;;;;;;;17.10;62.55;101598.47;5183930;28;20389;-43
2022/09/12 04:42:43;;;;;;;30.15;20.63;;;;;;;17.11;62.47;101604.63;5190736;28;20071;-43
2022/09/12 04:45:16;;;;;;;30.70;20.90;;;;;;;17.10;62.46;101594.97;5191336;28;20099;-43
2022/09/12 04:47:48;;;;;;;32.67;21.35;;;;;;;17.12;62.39;101590.25;5186463;28;20156;-44
2022/09/12 04:50:21;;;;;;;30.35;20.75;;;;;;;17.13;62.42;101594.63;5186704;28;20529;-40
2022/09/12 04:52:54;;;;;;;31.85;23.52;;;;;;;17.08;62.49;101588.97;5186665;28;20122;-45
2022/09/12 04:55:28;;;;;;;31.70;21.88;;;;;;;17.08;62.32;101596.97;5185478;28;20107;-42
2022/09/12 04:58:02;;;;;;;34.08;21.65;;;;;;;17.11;62.33;101602.78;5192437;28;20461;-32
2022/09/12 05:00:34;;;;;;;39.45;22.65;;;;;;;17.11;62.28;101599.28;5184528;28;20495;-42
2022/09/12 05:03:07;;;;;;;31.13;22.00;;;;;;;17.12;62.20;101595.59;5185396;28;20528;-48
2022/09/12 05:05:39;;;;;;;39.33;23.20;;;;;;;17.12;62.44;101590.25;5190367;28;20056;-44
2022/09/12 05:08:12;;;;;;;32.08;21.67;;;;;;;17.14;62.30;101593.59;5199495;28;20635;-39
2022/09/12 05:10:46;;;;;;;31.42;20.48;;;;;;;17.14;62.26;101590.94;5196185;28;20126;-43
2022/09/12 05:13:18;;;;;;;34.67;22.08;;;;;;;17.10;62.36;101579.78;5189710;28;20078;-44
2022/09/12 05:15:58;;;;;;;30.10;20.10;;;;;;;17.12;62.36;101585.75;5185562;28;21626;-43
2022/09/12 05:18:33;;;;;;;33.80;22.23;;;;;;;17.09;62.26;101587.94;5201540;28;20404;-41
2022/09/12 05:21:09;;;;;;;35.78;23.25;;;;;;;17.07;62.43;101577.47;5201810;28;20133;-41
2022/09/12 05:23:42;;;;;;;36.70;21.38;;;;;;;17.06;62.25;101578.44;5203102;28;20384;-42
2022/09/12 05:26:17;;;;;;;;;;;;;;;17.09;62.23;101580.75;5202093;28;20449;-46
2022/09/12 05:28:53;;;;;;;37.25;21.45;;;;;;;17.05;62.10;101569.59;5203997;28;20352;-44
2022/09/12 05:31:27;;;;;;;42.55;24.25;;;;;;;16.97;62.28;101551.00;5184534;28;20102;-45
2022/09/12 05:34:00;;;;;;;35.60;22.88;;;;;;;17.07;62.15;101577.47;5196710;28;20041;-41
2022/09/12 05:36:33;;;;;;;42.50;25.30;;;;;;;17.05;62.16;101574.94;5198065;28;20488;-44
2022/09/12 05:39:05;;;;;;;40.35;23.05;;;;;;;17.07;61.85;101573.97;5202153;28;20476;-44
2022/09/12 05:41:39;;;;;;;40.78;25.02;;;;;;;17.01;62.28;101562.97;5192945;28;20065;-41
2022/09/12 05:44:14;;;;;;;36.33;24.80;;;;;;;17.05;61.90;101569.59;5201267;28;20165;-42
2022/09/12 05:46:49;;;;;;;37.70;24.58;;;;;;;17.01;62.17;101578.16;5204651;28;20463;-44
2022/09/12 05:49:22;;;;;;;39.25;24.75;;;;;;;17.02;62.18;101588.63;5185677;28;20076;-41
2022/09/12 05:51:54;;;;;;;43.00;25.38;;;;;;;17.02;62.07;101585.97;5183915;28;20372;-41
2022/09/12 05:54:27;;;;;;;36.55;24.90;;;;;;;17.02;61.98;101590.47;5184081;28;20103;-40
2022/09/12 05:57:01;;;;;;;37.78;25.25;;;;;;;17.06;62.16;101589.13;5185390;28;20049;-41
2022/09/12 05:59:33;;;;;;;39.45;24.58;;;;;;;17.09;62.04;101585.28;5180696;28;20485;-43
2022/09/12 06:02:06;;;;;;;36.90;23.10;;;;;;;17.07;61.84;101579.31;5184073;28;20194;-40
2022/09/12 06:04:40;;;;;;;39.55;23.65;;;;;;;17.12;62.00;101579.59;5183770;28;20454;-42
2022/09/12 06:07:13;;;;;;;39.20;25.20;;;;;;;17.16;61.64;101580.94;5182678;28;20364;-40
2022/09/12 06:09:46;;;;;;;43.65;25.88;;;;;;;17.23;61.67;101576.53;5204225;28;20425;-40
2022/09/12 06:12:19;;;;;;;41.80;25.60;;;;;;;17.26;61.79;101576.19;5202424;28;20462;-39
2022/09/12 06:14:52;;;;;;;43.83;28.33;;;;;;;17.31;61.38;101570.31;5204603;28;20083;-41
2022/09/12 06:17:25;;;;;;;50.47;30.65;;;;;;;17.36;61.48;101571.44;5201278;28;20393;-39
2022/09/12 06:19:58;;;;;;;53.40;31.60;;;;;;;17.47;61.53;101571.06;5200887;28;20127;-43
2022/09/12 06:22:31;;;;;;;46.92;30.85;;;;;;;17.56;61.17;101568.31;5203378;28;20063;-41
2022/09/12 06:25:03;;;;;;;53.53;33.05;;;;;;;17.68;61.06;101564.22;5205340;28;20121;-40
2022/09/12 06:27:37;;;;;;;56.20;32.95;;;;;;;17.71;60.90;101558.50;5205386;28;20048;-42
2022/09/12 06:30:11;;;;;;;59.50;34.05;;;;;;;17.86;60.64;101574.63;5204156;28;20465;-43
2022/09/12 06:32:44;;;;;;;44.83;28.95;;;;;;;17.95;60.51;101558.34;5203946;28;20693;-40
2022/09/12 06:35:17;;;;;;;43.08;29.55;;;;;;;18.12;60.32;101559.03;5203093;28;20051;-41
2022/09/12 06:37:49;;;;;;;36.80;25.08;;;;;;;18.13;60.12;101551.84;5203988;28;20438;-43
2022/09/12 06:40:22;;;;;;;38.90;26.52;;;;;;;18.28;60.03;101560.72;5204673;28;20435;-42
2022/09/12 06:42:55;;;;;;;41.05;26.13;;;;;;;18.93;59.67;101556.47;5204466;28;20117;-41
2022/09/12 06:45:28;;;;;;;39.95;22.77;;;;;;;20.35;58.26;101561.13;5203199;28;20442;-48
2022/09/12 06:48:01;;;;;;;28.67;20.55;;;;;;;21.59;56.88;101563.72;5195901;28;20485;-42
2022/09/12 06:50:33;;;;;;;;;;;;;;;23.23;55.19;101566.31;5200531;28;20063;-42
2022/09/12 06:53:06;;;;;;;35.97;20.48;;;;;;;24.95;53.13;101563.09;5196136;28;20036;-43
2022/09/12 06:55:38;;;;;;;30.13;18.88;;;;;;;26.44;51.08;101557.63;5207559;28;20480;-46
2022/09/12 06:58:12;;;;;;;24.48;17.55;;;;;;;27.70;49.59;101572.28;5200836;28;20064;-43
2022/09/12 07:00:45;;;;;;;27.40;16.30;;;;;;;28.73;47.82;101568.09;5196415;28;20037;-46
2022/09/12 07:03:18;;;;;;;23.38;17.52;;;;;;;28.96;47.08;101563.47;5197420;28;20194;-42
2022/09/12 07:05:50;;;;;;;27.20;16.77;;;;;;;29.28;46.85;101560.84;5205309;28;20540;-46
2022/09/12 07:08:23;;;;;;;26.33;17.40;;;;;;;29.86;45.81;101558.34;5203909;28;20811;-44
2022/09/12 07:10:57;;;;;;;26.45;16.90;;;;;;;30.61;44.95;101555.53;5207179;28;20041;-47
2022/09/12 07:13:31;;;;;;;23.92;15.40;;;;;;;31.72;43.23;101556.03;5206067;28;20133;-46
2022/09/12 07:16:05;;;;;;;22.42;14.80;;;;;;;32.58;41.63;101561.31;5203092;28;20467;-45
2022/09/12 07:18:38;;;;;;;19.10;15.90;;;;;;;32.74;40.70;101553.03;5222272;28;20052;-43
2022/09/12 07:21:15;;;;;;;22.42;14.68;;;;;;;32.76;40.02;101556.28;5206767;28;20150;-45
2022/09/12 07:23:48;;;;;;;18.70;13.93;;;;;;;32.86;39.25;101560.88;5216176;28;20451;-45
2022/09/12 07:26:24;;;;;;;20.23;14.25;;;;;;;32.85;38.60;101557.34;5207336;28;20384;-43
2022/09/12 07:28:59;;;;;;;20.27;13.30;;;;;;;33.60;37.38;101550.81;5207313;28;20048;-45
2022/09/12 07:31:31;;;;;;;18.98;13.82;;;;;;;34.64;36.10;101555.75;5203664;28;20040;-37
2022/09/12 07:34:06;;;;;;;18.35;13.80;;;;;;;35.40;34.99;101544.75;5205431;28;20074;-47
2022/09/12 07:36:38;;;;;;;18.70;12.55;;;;;;;35.75;34.04;101538.69;5206428;28;20434;-47
2022/09/12 07:39:12;;;;;;;16.75;12.10;;;;;;;36.40;33.26;101537.69;5215795;28;20209;-51
2022/09/12 07:41:44;;;;;;;19.83;12.60;;;;;;;37.08;32.55;101546.97;5206114;28;20052;-46
2022/09/12 07:44:18;;;;;;;19.38;12.45;;;;;;;37.60;31.86;101546.53;5206846;28;20040;-48
2022/09/12 07:46:51;;;;;;;20.83;12.30;;;;;;;37.20;31.70;101545.56;5201506;28;20400;-46
2022/09/12 07:49:24;;;;;;;22.90;11.93;;;;;;;37.07;31.49;101539.00;5198165;28;20048;-47
2022/09/12 07:51:56;;;;;;;16.92;11.32;;;;;;;37.04;31.22;101556.97;5200543;28;20115;-47
2022/09/12 07:54:30;;;;;;;16.55;10.60;;;;;;;37.06;30.68;101543.69;5203311;28;20040;-48
2022/09/12 07:57:03;;;;;;;15.15;11.52;;;;;;;36.67;30.50;101553.38;5182660;28;20041;-45
2022/09/12 07:59:41;;;;;;;13.15;10.93;;;;;;;35.77;30.77;101541.94;5192901;28;20037;-48
2022/09/12 08:02:14;;;;;;;19.08;11.70;;;;;;;34.85;31.31;101554.38;5203956;28;20389;-45
2022/09/12 08:04:48;;;;;;;19.00;11.93;;;;;;;34.59;31.54;101547.59;5203659;28;20055;-49
2022/09/12 08:07:20;;;;;;;13.10;10.60;;;;;;;34.68;31.35;101545.81;5193978;28;20127;-45
2022/09/12 08:09:53;;;;;;;14.23;11.30;;;;;;;35.01;30.87;101551.41;5188569;28;20076;-47
2022/09/12 08:12:27;;;;;;;20.38;11.63;;;;;;;35.51;30.16;101554.47;5192602;28;20048;-43
2022/09/12 08:15:02;;;;;;;19.65;11.50;;;;;;;35.82;30.00;101543.78;5197732;28;20045;-48
2022/09/12 08:17:34;;;;;;;18.52;11.57;;;;;;;36.08;29.72;101557.06;5189059;28;20040;-46
2022/09/12 08:20:08;;;;;;;17.88;10.95;;;;;;;36.37;29.31;101565.81;5195442;28;20508;-46
2022/09/12 08:22:42;;;;;;;14.10;10.60;;;;;;;36.32;28.88;101554.09;5188639;28;20048;-45
2022/09/12 08:25:14;;;;;;;15.32;11.75;;;;;;;36.32;28.78;101556.84;5194412;28;20520;-48
2022/09/12 08:27:47;;;;;;;14.27;11.50;;;;;;;36.20;29.07;101563.69;5193906;28;20141;-49
2022/09/12 08:30:21;;;;;;;15.45;12.13;;;;;;;36.19;29.07;101564.81;5188223;28;20048;-45
2022/09/12 08:32:55;;;;;;;14.93;11.95;;;;;;;35.93;28.96;101561.72;5192844;28;20048;-47
2022/09/12 08:35:27;;;;;;;17.40;11.90;;;;;;;35.73;29.05;101562.91;5189463;28;20523;-49
2022/09/12 08:38:00;;;;;;;15.55;12.65;;;;;;;35.26;29.25;101558.47;5186991;28;20090;-45
2022/09/12 08:40:39;;;;;;;20.40;12.70;;;;;;;35.15;29.54;101562.47;5186432;28;20373;-38
2022/09/12 08:43:31;;;;;;;24.15;12.13;;;;;;;34.97;29.46;101555.88;5197513;28;20048;-49
2022/09/12 08:46:12;;;;;;;21.27;12.90;;;;;;;34.62;29.80;101552.50;5187636;28;20044;-49
2022/09/12 08:48:48;;;;;;;14.60;11.48;;;;;;;34.36;30.27;101557.47;5196333;28;20043;-45
2022/09/12 08:51:21;;;;;;;16.95;11.52;;;;;;;34.28;30.22;101553.44;5197796;28;20465;-49
2022/09/12 08:53:57;;;;;;;12.80;10.32;;;;;;;34.27;30.38;101549.06;5176010;28;20052;-48
2022/09/12 08:56:36;;;;;;;20.80;11.43;;;;;;;34.26;30.10;101547.44;5195018;28;20453;-45
2022/09/12 08:59:09;;;;;;;14.23;11.02;;;;;;;34.30;29.95;101553.97;5194594;28;20550;-46
2022/09/12 09:01:45;;;;;;;20.80;10.82;;;;;;;34.13;30.03;101537.16;5195605;28;20500;-46
2022/09/12 09:04:44;;;;;;;19.23;11.32;;;;;;;34.09;30.09;101553.38;5195169;28;20037;-49
2022/09/12 09:07:49;;;;;;;17.65;10.23;;;;;;;33.86;29.84;101549.50;5189009;28;20067;-46
2022/09/12 09:10:29;;;;;;;15.43;11.55;;;;;;;33.49;30.17;101544.59;5192979;28;21391;-48
2022/09/12 09:13:12;;;;;;;17.45;10.38;;;;;;;33.06;30.48;101542.47;5180265;28;20066;-38
2022/09/12 09:15:54;;;;;;;16.88;10.80;;;;;;;32.59;30.66;101535.59;5197092;28;20059;-44
2022/09/12 09:18:33;;;;;;;15.38;11.77;;;;;;;32.29;31.05;101538.44;5201785;28;20048;-47
2022/09/12 09:21:16;;;;;;;17.20;10.07;;;;;;;31.86;31.41;101552.44;5195530;28;20063;-46
2022/09/12 09:23:55;;;;;;;13.90;10.07;;;;;;;31.34;31.93;101534.47;5198293;28;20472;-49
2022/09/12 09:26:36;;;;;;;16.83;10.00;;;;;;;31.07;32.31;101534.69;5185659;28;20102;-44
2022/09/12 09:29:18;;;;;;;20.98;12.52;;;;;;;30.44;33.08;101520.28;5194287;28;20036;-44
2022/09/12 09:31:54;;;;;;;16.85;10.65;;;;;;;29.70;34.29;101532.94;5187549;28;20472;-43
2022/09/12 09:34:32;;;;;;;14.50;9.77;;;;;;;29.13;35.03;101522.59;5194711;28;20492;-44
2022/09/12 09:37:16;;;;;;;16.40;11.25;;;;;;;28.76;35.89;101523.28;5191776;28;20054;-47
2022/09/12 09:39:59;;;;;;;17.13;10.45;;;;;;;28.42;36.41;101528.84;5194165;28;20064;-50
2022/09/12 09:42:42;;;;;;;16.77;10.68;;;;;;;28.04;37.13;101516.91;5186661;28;20045;-46
2022/09/12 09:45:18;;;;;;;21.70;11.98;;;;;;;27.98;37.22;101517.09;5197776;28;20541;-47
2022/09/12 09:48:06;;;;;;;14.85;10.45;;;;;;;28.01;37.23;101505.72;5194042;28;20047;-48
2022/09/12 09:50:40;;;;;;;17.25;11.35;;;;;;;28.00;37.92;101510.34;5193506;28;20475;-46
2022/09/12 09:53:31;;;;;;;24.65;11.40;;;;;;;27.92;38.07;101508.03;5190810;28;20052;-49
2022/09/12 09:56:12;;;;;;;16.52;12.43;;;;;;;27.92;37.91;101491.75;5177743;28;20076;-46
2022/09/12 09:58:45;;;;;;;17.90;13.38;;;;;;;28.03;38.24;101509.03;5199715;28;20480;-48
2022/09/12 10:01:18;;;;;;;;;;;;;;;28.07;38.00;101499.31;5197999;28;20041;-46
2022/09/12 10:03:52;;;;;;;;;;;;;;;27.96;38.28;101489.34;5205446;28;19920;-48
2022/09/12 10:06:33;;;;;;;14.80;10.35;;;;;;;27.91;38.54;101489.31;5196880;28;20293;-47
2022/09/12 10:09:19;;;;;;;14.45;10.07;;;;;;;27.80;38.68;101480.19;5191280;28;20040;-47
2022/09/12 10:11:53;;;;;;;13.25;9.75;;;;;;;27.80;38.92;101488.31;5187231;28;20404;-47
2022/09/12 10:14:39;;;;;;;15.57;10.10;;;;;;;27.59;39.01;101481.72;5197899;28;20404;-49
2022/09/12 10:17:29;;;;;;;12.55;7.72;;;;;;;27.36;39.57;101477.31;5197215;28;20435;-44
2022/09/12 10:20:03;;;;;;;11.63;9.00;;;;;;;27.34;39.33;101480.25;5195895;28;20048;-37
2022/09/12 10:22:50;;;;;;;12.32;9.07;;;;;;;27.46;39.39;101472.03;5187501;28;20052;-45
2022/09/12 10:25:28;;;;;;;17.90;9.15;;;;;;;27.49;39.33;101470.72;5188299;28;20116;-47
2022/09/12 10:28:02;;;;;;;14.30;9.18;;;;;;;27.39;39.38;101465.16;5197187;28;20045;-46
2022/09/12 10:30:35;;;;;;;13.55;9.73;;;;;;;27.32;40.08;101476.16;5187314;28;20032;-47
2022/09/12 10:33:12;;;;;;;11.13;7.90;;;;;;;27.01;40.55;101464.75;5179493;28;20484;-48
2022/09/12 10:36:03;;;;;;;11.90;8.38;;;;;;;27.04;40.73;101463.47;5183838;28;20040;-45
2022/09/12 10:38:37;;;;;;;15.20;9.43;;;;;;;26.80;41.16;101460.84;5184143;28;20029;-45
2022/09/12 10:41:12;;;;;;;14.27;8.85;;;;;;;26.75;41.10;101459.94;5196106;28;20064;-47
2022/09/12 10:43:44;;;;;;;18.80;9.00;;;;;;;26.90;40.96;101473.75;5194026;28;20055;-52
2022/09/12 10:46:29;;;;;;;;;;;;;;;26.94;41.00;101474.91;5190921;28;20612;-47
2022/09/12 10:49:24;;;;;;;15.07;9.70;;;;;;;27.00;40.93;101465.81;5191927;28;19921;-47
2022/09/12 10:52:15;;;;;;;16.45;9.75;;;;;;;26.95;41.10;101465.72;5191582;28;20040;-47
2022/09/12 10:54:49;;;;;;;14.23;10.48;;;;;;;26.91;41.19;101461.84;5193283;28;20152;-45
2022/09/12 10:57:44;;;;;;;13.23;9.20;;;;;;;26.93;41.33;101457.00;5199185;28;21600;-50
2022/09/12 11:00:26;;;;;;;15.52;8.18;;;;;;;26.88;41.60;101456.91;5191148;28;20063;-48
2022/09/12 11:03:09;;;;;;;15.38;9.02;;;;;;;26.73;41.97;101451.22;5185718;28;20091;-44
2022/09/12 11:05:54;;;;;;;;;;;;;;;26.67;42.00;101453.03;5180949;28;20624;-46
2022/09/12 11:08:59;;;;;;;13.35;9.15;;;;;;;26.65;42.01;101450.53;5194971;28;19921;-48
2022/09/12 11:11:57;;;;;;;16.92;11.70;;;;;;;26.61;41.88;101446.69;5189872;28;20106;-50
2022/09/12 11:14:52;;;;;;;10.68;8.02;;;;;;;26.66;41.95;101454.91;5192479;28;20044;-47
2022/09/12 11:17:40;;;;;;;16.63;10.27;;;;;;;26.78;41.70;101452.13;5193331;28;20041;-46
2022/09/12 11:20:44;;;;;;;12.73;8.50;;;;;;;26.70;41.77;101441.72;5190177;28;20143;-47
2022/09/12 11:24:04;;;;;;;14.23;8.82;;;;;;;26.66;42.09;101449.50;5175667;28;20036;-49
2022/09/12 11:26:57;;;;;;;10.43;8.48;;;;;;;26.73;41.92;101440.38;5187255;28;20037;-46
2022/09/12 11:29:49;;;;;;;11.75;8.75;;;;;;;26.73;42.09;101446.63;5190416;28;20299;-47
2022/09/12 11:33:00;;;;;;;12.98;8.90;;;;;;;26.65;42.58;101439.72;5182614;28;20433;-49
2022/09/12 11:35:35;;;;;;;15.60;8.77;;;;;;;26.57;42.58;101434.69;5180814;28;20049;-42
2022/09/12 11:38:45;;;;;;;11.68;7.97;;;;;;;26.50;42.57;101436.72;5192727;28;20063;-49
2022/09/12 11:41:23;;;;;;;10.20;7.22;;;;;;;26.50;42.68;101433.19;5184593;28;20396;-48
2022/09/12 11:44:04;;;;;;;14.52;7.90;;;;;;;26.51;42.47;101421.28;5192531;28;20060;-49
2022/09/12 11:46:40;;;;;;;12.15;7.63;;;;;;;26.70;42.10;101436.28;5183392;28;20453;-45
2022/09/12 11:49:22;;;;;;;8.73;6.47;;;;;;;26.90;41.95;101446.66;5190686;28;20051;-47
2022/09/12 11:52:01;;;;;;;10.70;6.05;;;;;;;26.87;41.96;101439.03;5195836;28;20447;-43
2022/09/12 11:54:39;;;;;;;8.98;6.15;;;;;;;26.78;41.73;101437.78;5186345;28;20041;-46
2022/09/12 11:57:20;;;;;;;8.43;5.43;;;;;;;26.75;41.74;101427.41;5195652;28;20058;-46
2022/09/12 11:59:58;;;;;;;5.78;4.78;;;;;;;26.80;41.03;101441.06;5177546;28;21421;-47